Hlavní strana
METAR-TAF:

METAR-TAF

Letiště :

Zandžán, Írán

zeměpisná šířka: 36-41N, zeměpisná délka: 048-29E, výška: 1663 m

Aktuální stav počasí

Zpráva byla vytvořena před 9 hodinami a 1 minutami, v 15:00 UTC
Východní vítr 19 kt
Teplota 33°C
Vlhkost vzduchu 11%
Tlak 1014 hPa
Viditelnost 10 km a více
Skoro jasno ve výšce 3500 ft

METAR: OITZ 221500Z 08019KT 9999 FEW035 33/M01 Q1013 A2993

Čas: 04:31 (00:01 UTC)


TAF: chybějící

Stav a předpovědi počasí z více než 4 000 letišť (zprávy METAR a TAF).

Červené a žluté tečky na mapě představují dostupné meteorologické stanice.

Když kurzor umístíte na tečku, zobrazí se název stanice.

Pak kliknutím zobrazíte stav a předpověď počasí.

Chcete-li změnit mapu, kliknutím na zelené tlačítko se znaménkem +mapu přiblížíte, kliknutím na zelené tlačítko se znaménkem – mapu oddálíte a kliknutím na zelené šipky přejdete na sousední mapy.


METAR-TAF: